Corvallis Municipal Airport
KCVO : now visible

Airfield :











YOU CAN JOIN US ON...

 
LOGIN :

Register | Disclaimer

   EN    FR    IT 

 









Legend :    VFR   Marginal VFR   IFR   Intensive IFR   Very Intensive IFR
Visi :
Ceiling :
>= 8 km
>= 3000ft
5 to 8 km
1000 to 3000 ft
1500m to 5 km
500 to 1000 ft
800 to 1500m
200 to 500 ft
< 800m
< 200 ft
Symbols :   Thunderstorms  Fog  Heavy snow  Heavy precipitations  Wind > 20 kt






- Airport Elevation : 250 ft


KCVO - Corvallis Municipal

CURRENT METAR :
  • 090756Z AUTO 29004KT 10SM CLR 15/13 A3000 RMK AO2 SLP159 T01500128 402560117

EXPIRED METARs :
  • 090656Z AUTO 31008KT 10SM CLR 16/13 A3000 RMK AO2 SLP159 T01560128
  • 090556Z AUTO 30005KT 10SM CLR 15/13 A3002 RMK AO2 SLP164 T01500128 10244 20150 53016

TAF N/A
KZSE FIR / North America



MET'MAP, your aeronautical weather chart ! - Copyright ORBIFLY December 2007 - Disclaimer

ORBIFLY MET'MAP TEAM :

Programming & Development : Alexandra Zaïnal
Original concept : Baudouin d'Aumeries
Technical & hardware support : Manuel Goepfert
Assistance : Marc-Olivier Méhu




SOURCES & CREDITS :

   NOAA       Earth
Advisory